createdAt,value
2023-04-21T00:01:30.071Z,9.65
2023-04-21T00:03:58.135Z,9.66
2023-04-21T00:06:27.042Z,9.63
2023-04-21T00:08:54.974Z,9.62
2023-04-21T00:11:22.891Z,9.61
2023-04-21T00:13:50.773Z,9.59
2023-04-21T00:16:18.527Z,9.59
2023-04-21T00:18:48.000Z,9.56
2023-04-21T00:21:16.383Z,9.51
2023-04-21T00:23:44.213Z,9.48
2023-04-21T00:26:11.955Z,9.42
2023-04-21T00:28:42.089Z,9.36
2023-04-21T00:31:09.980Z,9.35
2023-04-21T00:33:37.838Z,9.29
2023-04-21T00:36:06.219Z,9.24
2023-04-21T00:38:34.054Z,9.21
2023-04-21T00:41:01.938Z,9.20
2023-04-21T00:43:29.868Z,9.18
2023-04-21T00:45:57.984Z,9.13
2023-04-21T00:48:25.740Z,9.06
2023-04-21T00:50:53.738Z,9.00
2023-04-21T00:53:22.233Z,8.97
2023-04-21T00:55:50.607Z,8.89
2023-04-21T00:58:18.471Z,8.86
2023-04-21T01:00:46.336Z,8.83
2023-04-21T01:03:14.433Z,8.82
2023-04-21T01:05:42.888Z,8.81
2023-04-21T01:08:13.394Z,8.79
2023-04-21T01:10:41.207Z,8.77
2023-04-21T01:13:09.175Z,8.71
2023-04-21T01:15:36.916Z,8.65
2023-04-21T01:18:06.131Z,8.62
2023-04-21T01:20:34.520Z,8.62
2023-04-21T01:23:02.340Z,8.60
2023-04-21T01:25:30.266Z,8.53
2023-04-21T01:27:58.134Z,8.44
2023-04-21T01:30:25.848Z,8.34
2023-04-21T01:32:53.822Z,8.22
2023-04-21T01:35:21.673Z,8.07
2023-04-21T01:37:49.601Z,7.90
2023-04-21T01:40:19.977Z,7.69
2023-04-21T01:42:47.786Z,7.49
2023-04-21T01:45:15.655Z,7.26
2023-04-21T01:47:43.569Z,7.01
2023-04-21T01:50:11.679Z,6.70
2023-04-21T01:52:39.454Z,6.44
2023-04-21T01:55:07.669Z,6.18
2023-04-21T01:57:36.232Z,5.95
2023-04-21T02:00:05.237Z,5.76
2023-04-21T02:02:43.086Z,5.59
2023-04-21T02:05:14.189Z,5.44
2023-04-21T02:07:42.953Z,5.31
2023-04-21T02:10:11.589Z,5.17
2023-04-21T02:12:39.335Z,5.03
2023-04-21T02:15:07.821Z,4.89
2023-04-21T02:17:36.774Z,4.77
2023-04-21T02:20:05.770Z,4.61
2023-04-21T02:22:33.690Z,4.46
2023-04-21T02:25:05.747Z,4.30
2023-04-21T02:27:33.877Z,4.19
2023-04-21T02:30:02.184Z,4.08
2023-04-21T02:32:30.301Z,3.99
2023-04-21T02:34:58.121Z,3.89
2023-04-21T02:37:26.654Z,3.78
2023-04-21T02:39:54.433Z,3.68
2023-04-21T02:42:22.150Z,3.59
2023-04-21T02:44:50.090Z,3.50
2023-04-21T02:47:17.919Z,3.40
2023-04-21T02:49:45.750Z,3.30
2023-04-21T02:52:13.652Z,3.20
2023-04-21T02:54:41.627Z,3.12
2023-04-21T02:57:09.950Z,3.04
2023-04-21T02:59:37.760Z,2.94
2023-04-21T03:02:05.624Z,2.87
2023-04-21T03:04:34.302Z,2.82
2023-04-21T03:07:02.303Z,2.76
2023-04-21T03:09:30.049Z,2.68
2023-04-21T03:11:57.796Z,2.61
2023-04-21T03:14:25.602Z,2.56
2023-04-21T03:16:53.459Z,2.52
2023-04-21T03:19:21.580Z,2.47
2023-04-21T03:21:49.659Z,2.42
2023-04-21T03:24:17.496Z,2.41
2023-04-21T03:26:45.304Z,2.39
2023-04-21T03:29:13.069Z,2.37
2023-04-21T03:31:40.799Z,2.33
2023-04-21T03:34:08.521Z,2.29
2023-04-21T03:36:36.255Z,2.28
2023-04-21T03:39:16.908Z,2.32
2023-04-21T03:41:48.400Z,2.42
2023-04-21T03:44:16.151Z,2.56
2023-04-21T03:46:43.995Z,2.66
2023-04-21T03:49:11.736Z,2.77
2023-04-21T03:51:39.463Z,2.87
2023-04-21T03:54:08.421Z,3.09
2023-04-21T03:56:36.260Z,3.44
2023-04-21T03:59:04.480Z,3.68
2023-04-21T04:02:48.813Z,3.87
2023-04-21T04:05:16.807Z,4.25
2023-04-21T04:07:45.282Z,4.60
2023-04-21T04:10:13.177Z,4.99
2023-04-21T04:12:41.138Z,5.41
2023-04-21T04:15:09.619Z,5.72
2023-04-21T04:17:37.582Z,6.21
2023-04-21T04:20:08.450Z,6.85
2023-04-21T04:22:36.379Z,7.54
2023-04-21T04:25:05.410Z,8.16
2023-04-21T04:27:34.691Z,8.82
2023-04-21T04:34:38.446Z,11.20
2023-04-21T04:37:06.682Z,12.33
2023-04-21T04:39:35.166Z,13.57
2023-04-21T04:42:03.820Z,14.84
2023-04-21T04:44:31.956Z,16.05
2023-04-21T04:46:59.887Z,17.12
2023-04-21T04:49:28.069Z,18.23
2023-04-21T04:51:56.129Z,19.55
2023-04-21T04:54:25.295Z,20.60
2023-04-21T04:56:53.308Z,21.87
2023-04-21T04:59:21.619Z,23.20
2023-04-21T05:01:49.593Z,24.08
2023-04-21T05:04:17.800Z,24.60
2023-04-21T05:06:46.271Z,25.42
2023-04-21T05:09:14.310Z,25.42
2023-04-21T05:11:42.379Z,24.61
2023-04-21T05:14:10.508Z,23.98
2023-04-21T05:16:38.472Z,23.13
2023-04-21T05:19:06.457Z,21.71
2023-04-21T05:21:34.934Z,20.26
2023-04-21T05:24:03.032Z,19.16
2023-04-21T05:26:31.655Z,17.70
2023-04-21T05:28:59.571Z,17.03
2023-04-21T05:31:27.478Z,16.47
2023-04-21T05:33:55.471Z,16.18
2023-04-21T05:36:24.975Z,16.31
2023-04-21T05:38:54.070Z,15.95
2023-04-21T05:41:22.705Z,15.67
2023-04-21T05:43:50.756Z,15.37
2023-04-21T05:46:18.745Z,15.42
2023-04-21T05:48:46.866Z,15.18
2023-04-21T05:51:18.229Z,15.23
2023-04-21T05:53:46.405Z,15.18
2023-04-21T05:56:14.804Z,15.14
2023-04-21T05:58:42.910Z,15.25
2023-04-21T06:01:11.512Z,15.16
2023-04-21T06:03:39.696Z,15.28
2023-04-21T06:06:11.586Z,15.46
2023-04-21T06:08:39.758Z,15.41
2023-04-21T06:11:07.716Z,15.80
2023-04-21T06:13:38.180Z,15.92
2023-04-21T06:16:07.171Z,16.27
2023-04-21T06:18:35.261Z,16.48
2023-04-21T06:21:03.406Z,16.50
2023-04-21T06:23:31.274Z,16.85
2023-04-21T06:26:04.199Z,16.98
2023-04-21T06:28:36.005Z,17.07
2023-04-21T06:31:06.193Z,17.25
2023-04-21T06:33:37.196Z,17.64
2023-04-21T06:36:05.452Z,17.83
2023-04-21T06:38:33.499Z,18.06
2023-04-21T06:41:02.427Z,17.91
2023-04-21T06:43:30.571Z,18.18
2023-04-21T06:45:59.167Z,18.57
2023-04-21T06:48:27.896Z,18.92
2023-04-21T06:50:55.922Z,19.27
2023-04-21T06:53:24.006Z,19.88
2023-04-21T06:55:53.500Z,20.22
2023-04-21T06:58:21.620Z,20.38
2023-04-21T07:00:49.658Z,20.46
2023-04-21T07:03:17.838Z,20.74
2023-04-21T07:05:47.284Z,20.49
2023-04-21T07:08:15.357Z,20.41
2023-04-21T07:10:43.311Z,20.51
2023-04-21T07:13:11.415Z,20.65
2023-04-21T07:15:39.430Z,20.31
2023-04-21T07:18:07.700Z,20.14
2023-04-21T07:20:35.810Z,20.68
2023-04-21T07:23:03.994Z,20.49
2023-04-21T07:25:32.081Z,19.89
2023-04-21T07:28:00.467Z,19.64
2023-04-21T07:30:29.400Z,19.70
2023-04-21T07:32:57.781Z,19.39
2023-04-21T07:35:26.165Z,19.13
2023-04-21T07:37:54.179Z,19.21
2023-04-21T07:40:22.221Z,19.00
2023-04-21T07:42:50.350Z,19.53
2023-04-21T07:45:18.386Z,19.70
2023-04-21T07:47:46.930Z,19.37
2023-04-21T07:50:15.420Z,19.11
2023-04-21T07:52:43.380Z,19.35
2023-04-21T07:55:11.380Z,19.44
2023-04-21T07:57:40.424Z,19.53
2023-04-21T08:00:09.451Z,19.87
2023-04-21T08:02:40.490Z,19.72
2023-04-21T08:05:09.198Z,19.84
2023-04-21T08:07:37.532Z,19.77
2023-04-21T08:10:06.826Z,19.55
2023-04-21T08:12:34.768Z,19.21
2023-04-21T08:15:06.051Z,19.36
2023-04-21T08:17:34.931Z,19.57
2023-04-21T08:20:03.989Z,19.07
2023-04-21T08:22:31.919Z,19.31
2023-04-21T08:25:00.016Z,19.47
2023-04-21T08:27:30.772Z,19.07
2023-04-21T08:30:00.319Z,18.98
2023-04-21T08:32:28.831Z,19.07
2023-04-21T08:34:57.217Z,18.39
2023-04-21T08:37:25.705Z,18.39
2023-04-21T08:39:54.594Z,18.31
2023-04-21T08:42:22.738Z,18.02
2023-04-21T08:44:51.039Z,17.81
2023-04-21T08:47:20.809Z,17.89
2023-04-21T08:49:51.345Z,17.49
2023-04-21T08:52:19.850Z,17.61
2023-04-21T08:54:52.041Z,17.62
2023-04-21T08:57:20.415Z,17.48
2023-04-21T08:59:48.591Z,17.54
2023-04-21T09:02:19.491Z,17.60
2023-04-21T09:04:52.905Z,17.77
2023-04-21T09:07:32.278Z,17.81
2023-04-21T09:10:00.878Z,18.21
2023-04-21T09:12:30.096Z,18.05
2023-04-21T09:14:58.968Z,18.05
2023-04-21T09:17:37.024Z,17.86
2023-04-21T09:20:17.941Z,17.67
2023-04-21T09:22:49.810Z,17.70
2023-04-21T09:25:20.718Z,18.04
2023-04-21T09:27:49.090Z,17.94
2023-04-21T09:30:20.777Z,18.16
2023-04-21T09:32:49.882Z,18.08
2023-04-21T09:35:18.397Z,17.90
2023-04-21T09:37:46.676Z,17.99
2023-04-21T09:40:17.857Z,18.15
2023-04-21T09:42:46.537Z,18.13
2023-04-21T09:47:53.052Z,17.75
2023-04-21T09:50:41.840Z,17.75
2023-04-21T09:53:16.670Z,17.92
2023-04-21T09:55:48.387Z,17.83
2023-04-21T09:58:20.392Z,18.06
2023-04-21T10:00:49.661Z,18.15
2023-04-21T10:03:19.976Z,18.35
2023-04-21T10:05:48.298Z,18.12
2023-04-21T10:08:17.344Z,18.07
2023-04-21T10:10:46.319Z,17.88
2023-04-21T10:13:18.633Z,17.83
2023-04-21T10:15:46.809Z,18.00
2023-04-21T10:18:20.055Z,18.32
2023-04-21T10:21:22.277Z,18.24
2023-04-21T10:23:54.620Z,18.40
2023-04-21T10:26:38.357Z,18.25
2023-04-21T10:29:09.634Z,18.17
2023-04-21T10:31:51.488Z,18.28
2023-04-21T10:34:34.800Z,18.26
2023-04-21T10:37:06.254Z,18.26
2023-04-21T10:39:42.576Z,18.33
2023-04-21T10:42:13.937Z,18.35
2023-04-21T10:44:52.330Z,17.95
2023-04-21T10:47:41.211Z,17.95
2023-04-21T10:50:12.816Z,18.10
2023-04-21T10:52:47.631Z,18.24
2023-04-21T10:55:17.280Z,18.17
2023-04-21T10:57:45.567Z,18.28
2023-04-21T11:04:37.586Z,18.07
2023-04-21T11:07:08.360Z,18.09
2023-04-21T11:09:38.458Z,18.11
2023-04-21T11:12:11.973Z,18.11
2023-04-21T11:14:42.250Z,18.15
2023-04-21T11:17:18.210Z,17.95
2023-04-21T11:19:56.759Z,18.05
2023-04-21T11:22:26.913Z,18.03
2023-04-21T11:24:57.259Z,18.05
2023-04-21T11:27:32.151Z,17.85
2023-04-21T11:30:03.849Z,17.89
2023-04-21T11:32:31.879Z,17.74
2023-04-21T11:35:00.573Z,17.90
2023-04-21T11:37:28.588Z,18.14
2023-04-21T11:39:58.469Z,18.21
2023-04-21T11:42:27.724Z,18.05
2023-04-21T11:44:57.181Z,18.37
2023-04-21T11:47:28.322Z,18.57
2023-04-21T11:49:58.936Z,18.45
2023-04-21T11:52:33.498Z,18.41
2023-04-21T11:55:08.266Z,18.59
2023-04-21T11:57:36.721Z,18.54
2023-04-21T12:00:06.754Z,18.56
2023-04-21T12:02:35.168Z,18.61
2023-04-21T12:05:13.912Z,18.73
2023-04-21T12:07:43.515Z,18.92
2023-04-21T12:10:12.596Z,19.03
2023-04-21T12:12:41.810Z,19.17
2023-04-21T12:15:12.252Z,18.96
2023-04-21T12:17:48.119Z,18.80
2023-04-21T12:20:17.969Z,18.60
2023-04-21T12:22:46.746Z,18.62
2023-04-21T12:25:15.508Z,18.68
2023-04-21T12:27:51.173Z,18.65
2023-04-21T12:30:20.269Z,18.80
2023-04-21T12:32:48.594Z,18.77
2023-04-21T12:35:16.863Z,18.56
2023-04-21T12:37:45.235Z,18.52
2023-04-21T12:40:13.264Z,18.63
2023-04-21T12:42:41.619Z,18.72
2023-04-21T12:45:10.552Z,18.57
2023-04-21T12:47:39.464Z,18.75
2023-04-21T12:50:08.690Z,19.06
2023-04-21T12:52:36.798Z,19.05
2023-04-21T12:55:05.033Z,18.62
2023-04-21T12:57:33.619Z,18.52
2023-04-21T13:00:01.716Z,18.67
2023-04-21T13:02:31.512Z,18.69
2023-04-21T13:05:00.009Z,18.56
2023-04-21T13:07:31.316Z,18.54
2023-04-21T13:09:59.392Z,18.63
2023-04-21T13:12:27.299Z,18.58
2023-04-21T13:14:55.220Z,18.43
2023-04-21T13:17:23.729Z,18.44
2023-04-21T13:19:52.293Z,18.38
2023-04-21T13:22:20.558Z,18.43
2023-04-21T13:24:48.619Z,18.49
2023-04-21T13:27:16.672Z,18.63
2023-04-21T13:29:44.591Z,18.46
2023-04-21T13:32:15.590Z,18.56
2023-04-21T13:34:43.525Z,18.69
2023-04-21T13:37:16.548Z,18.74
2023-04-21T13:39:44.497Z,18.79
2023-04-21T13:42:12.548Z,18.68
2023-04-21T13:44:40.707Z,18.65
2023-04-21T13:47:11.788Z,18.68
2023-04-21T13:49:40.230Z,18.48
2023-04-21T13:52:08.236Z,18.52
2023-04-21T13:54:36.159Z,18.65
2023-04-21T13:57:05.624Z,18.84
2023-04-21T13:59:34.332Z,18.78
2023-04-21T14:02:02.710Z,18.62
2023-04-21T14:04:31.259Z,18.60
2023-04-21T14:07:00.255Z,18.62
2023-04-21T14:09:28.669Z,18.72
2023-04-21T14:11:57.044Z,18.65
2023-04-21T14:14:37.754Z,18.50
2023-04-21T14:17:07.976Z,18.36
2023-04-21T14:19:36.820Z,18.45
2023-04-21T14:22:04.999Z,18.46
2023-04-21T14:24:33.061Z,18.60
2023-04-21T14:27:01.229Z,18.41
2023-04-21T14:29:29.203Z,18.38
2023-04-21T14:31:58.792Z,18.40
2023-04-21T14:34:27.216Z,18.35
2023-04-21T14:36:55.969Z,18.50
2023-04-21T14:39:24.462Z,18.65
2023-04-21T14:41:52.495Z,18.33
2023-04-21T14:44:20.648Z,18.24
2023-04-21T14:47:00.868Z,18.31
2023-04-21T14:49:34.517Z,18.31
2023-04-21T14:52:03.843Z,18.28
2023-04-21T14:54:31.972Z,18.44
2023-04-21T14:57:17.828Z,18.41
2023-04-21T14:59:47.009Z,18.29
2023-04-21T15:02:15.662Z,18.26
2023-04-21T15:04:44.246Z,18.30
2023-04-21T15:07:12.827Z,18.34
2023-04-21T15:09:45.769Z,18.29
2023-04-21T15:12:15.295Z,18.28
2023-04-21T15:14:43.426Z,18.18
2023-04-21T15:17:11.684Z,18.10
2023-04-21T15:19:39.789Z,18.00
2023-04-21T15:22:07.915Z,18.04
2023-04-21T15:24:35.972Z,18.08
2023-04-21T15:27:04.313Z,18.15
2023-04-21T15:29:32.721Z,18.21
2023-04-21T15:32:00.952Z,18.14
2023-04-21T15:34:28.802Z,18.04
2023-04-21T15:36:57.480Z,17.99
2023-04-21T15:39:25.861Z,17.92
2023-04-21T15:41:55.221Z,18.03
2023-04-21T15:44:23.278Z,17.99
2023-04-21T15:46:51.400Z,17.98
2023-04-21T15:49:19.384Z,17.88
2023-04-21T15:51:47.358Z,17.85
2023-04-21T15:54:16.259Z,17.81
2023-04-21T15:56:44.240Z,17.82
2023-04-21T15:59:12.177Z,17.79
2023-04-21T16:01:40.404Z,17.67
2023-04-21T16:04:08.820Z,17.59
2023-04-21T16:06:38.079Z,17.51
2023-04-21T16:09:06.308Z,17.41
2023-04-21T16:11:34.543Z,17.37
2023-04-21T16:14:02.710Z,17.45
2023-04-21T16:16:30.649Z,17.43
2023-04-21T16:18:58.829Z,17.39
2023-04-21T16:21:27.995Z,17.28
2023-04-21T16:23:56.429Z,17.29
2023-04-21T16:26:27.797Z,17.19
2023-04-21T16:28:57.140Z,17.08
2023-04-21T16:31:25.621Z,17.03
2023-04-21T16:33:59.410Z,17.00
2023-04-21T16:36:28.468Z,16.89
2023-04-21T16:38:57.384Z,16.89
2023-04-21T16:41:25.524Z,16.82
2023-04-21T16:43:53.573Z,16.71
2023-04-21T16:46:22.144Z,16.68
2023-04-21T16:48:50.109Z,16.64
2023-04-21T16:51:18.098Z,16.60
2023-04-21T16:53:46.120Z,16.50
2023-04-21T16:56:14.891Z,16.43
2023-04-21T16:58:43.038Z,16.35
2023-04-21T17:01:11.647Z,16.31
2023-04-21T17:03:39.704Z,16.28
2023-04-21T17:06:10.851Z,16.25
2023-04-21T17:08:38.882Z,16.17
2023-04-21T17:11:06.936Z,16.06
2023-04-21T17:13:38.203Z,16.00
2023-04-21T17:16:09.681Z,15.94
2023-04-21T17:18:37.641Z,15.88
2023-04-21T17:21:06.371Z,15.81
2023-04-21T17:23:34.725Z,15.73
2023-04-21T17:26:03.762Z,15.65
2023-04-21T17:28:32.162Z,15.54
2023-04-21T17:31:13.633Z,15.39
2023-04-21T17:33:43.873Z,15.29
2023-04-21T17:36:12.405Z,15.21
2023-04-21T17:38:42.704Z,15.11
2023-04-21T17:41:11.547Z,15.04
2023-04-21T17:43:39.593Z,14.95
2023-04-21T17:46:07.902Z,14.85
2023-04-21T17:48:35.960Z,14.76
2023-04-21T17:51:04.147Z,14.69
2023-04-21T17:53:32.137Z,14.60
2023-04-21T17:56:00.231Z,14.49
2023-04-21T17:58:28.483Z,14.37
2023-04-21T18:00:57.177Z,14.23
2023-04-21T18:03:25.788Z,14.08
2023-04-21T18:05:55.061Z,13.90
2023-04-21T18:08:23.366Z,13.78
2023-04-21T18:10:51.270Z,13.63
2023-04-21T18:13:19.482Z,13.47
2023-04-21T18:15:47.472Z,13.28
2023-04-21T18:18:15.460Z,13.09
2023-04-21T18:20:43.544Z,12.89
2023-04-21T18:23:11.855Z,12.69
2023-04-21T18:25:42.930Z,12.47
2023-04-21T18:28:12.820Z,12.24
2023-04-21T18:30:41.448Z,12.01
2023-04-21T18:33:11.784Z,11.81
2023-04-21T18:35:42.096Z,11.61
2023-04-21T18:38:11.960Z,11.44
2023-04-21T18:40:41.379Z,11.25
2023-04-21T18:43:10.616Z,11.07
2023-04-21T18:45:39.313Z,10.91
2023-04-21T18:48:07.529Z,10.76
2023-04-21T18:50:39.859Z,10.62
2023-04-21T18:53:09.141Z,10.47
2023-04-21T18:55:37.731Z,10.32
2023-04-21T18:58:06.520Z,10.15
2023-04-21T19:04:36.721Z,9.78
2023-04-21T19:07:08.307Z,9.62
2023-04-21T19:09:37.476Z,9.50
2023-04-21T19:12:05.645Z,9.37
2023-04-21T19:14:42.708Z,9.25
2023-04-21T19:17:14.480Z,9.14
2023-04-21T19:19:43.163Z,9.01
2023-04-21T19:22:11.111Z,8.90
2023-04-21T19:24:39.342Z,8.81
2023-04-21T19:27:08.086Z,8.72
2023-04-21T19:29:37.102Z,8.62
2023-04-21T19:32:05.144Z,8.53
2023-04-21T19:34:33.113Z,8.45
2023-04-21T19:37:01.248Z,8.34
2023-04-21T19:39:29.368Z,8.26
2023-04-21T19:41:58.032Z,8.17
2023-04-21T19:44:25.936Z,8.09
2023-04-21T19:46:53.900Z,8.00
2023-04-21T19:49:21.833Z,7.89
2023-04-21T19:51:49.797Z,7.78
2023-04-21T19:54:17.871Z,7.69
2023-04-21T19:56:45.843Z,7.61
2023-04-21T19:59:13.892Z,7.52
2023-04-21T20:01:41.949Z,7.43
2023-04-21T20:04:11.982Z,7.33
2023-04-21T20:06:41.561Z,7.25
2023-04-21T20:09:10.547Z,7.17
2023-04-21T20:11:38.496Z,7.09
2023-04-21T20:14:06.451Z,7.03
2023-04-21T20:16:34.606Z,6.95
2023-04-21T20:19:02.712Z,6.88
2023-04-21T20:21:30.638Z,6.84
2023-04-21T20:23:58.646Z,6.80
2023-04-21T20:26:26.700Z,6.76
2023-04-21T20:28:54.921Z,6.71
2023-04-21T20:31:25.723Z,6.65
2023-04-21T20:33:53.850Z,6.60
2023-04-21T20:36:22.286Z,6.54
2023-04-21T20:38:50.832Z,6.49
2023-04-21T20:41:18.769Z,6.45
2023-04-21T20:43:46.713Z,6.41
2023-04-21T20:46:15.643Z,6.37
2023-04-21T20:48:43.616Z,6.34
2023-04-21T20:51:12.411Z,6.30
2023-04-21T20:53:40.527Z,6.25
2023-04-21T20:56:08.614Z,6.19
2023-04-21T20:58:36.763Z,6.16
2023-04-21T21:01:04.863Z,6.13
2023-04-21T21:03:33.033Z,6.10
2023-04-21T21:06:01.074Z,6.03
2023-04-21T21:08:29.236Z,5.98
2023-04-21T21:10:57.646Z,5.92
2023-04-21T21:13:25.990Z,5.87
2023-04-21T21:15:54.025Z,5.79
2023-04-21T21:18:21.930Z,5.75
2023-04-21T21:20:49.861Z,5.68
2023-04-21T21:23:17.803Z,5.64
2023-04-21T21:25:45.820Z,5.62
2023-04-21T21:28:13.660Z,5.60
2023-04-21T21:30:41.576Z,5.58
2023-04-21T21:33:09.519Z,5.56
2023-04-21T21:35:37.570Z,5.54
2023-04-21T21:38:05.627Z,5.52
2023-04-21T21:40:33.570Z,5.47
2023-04-21T21:43:01.747Z,5.43
2023-04-21T21:45:29.839Z,5.40
2023-04-21T21:47:58.095Z,5.36
2023-04-21T21:50:26.084Z,5.33
2023-04-21T21:52:54.129Z,5.28
2023-04-21T21:55:22.229Z,5.25
2023-04-21T21:57:50.478Z,5.20
2023-04-21T22:00:18.755Z,5.14
2023-04-21T22:02:46.678Z,5.09
2023-04-21T22:05:15.061Z,5.03
2023-04-21T22:07:43.173Z,4.97
2023-04-21T22:10:11.913Z,4.93
2023-04-21T22:12:39.926Z,4.90
2023-04-21T22:15:08.947Z,4.88
2023-04-21T22:17:37.972Z,4.85
2023-04-21T22:20:07.539Z,4.82
2023-04-21T22:22:36.164Z,4.78
2023-04-21T22:25:05.754Z,4.77
2023-04-21T22:27:34.257Z,4.74
2023-04-21T22:30:03.644Z,4.69
2023-04-21T22:32:32.538Z,4.65
2023-04-21T22:35:01.486Z,4.60
2023-04-21T22:37:29.866Z,4.55
2023-04-21T22:39:57.836Z,4.52
2023-04-21T22:42:26.153Z,4.48
2023-04-21T22:44:54.200Z,4.46
2023-04-21T22:47:22.802Z,4.42
2023-04-21T22:49:51.535Z,4.37
2023-04-21T22:52:19.512Z,4.32
2023-04-21T22:54:47.505Z,4.27
2023-04-21T22:57:15.479Z,4.23
2023-04-21T22:59:43.403Z,4.19
2023-04-21T23:02:11.604Z,4.16
2023-04-21T23:04:39.614Z,4.14
2023-04-21T23:07:07.791Z,4.12
2023-04-21T23:09:35.865Z,4.11
2023-04-21T23:12:06.115Z,4.08
2023-04-21T23:14:34.237Z,4.04
2023-04-21T23:17:02.293Z,4.02
2023-04-21T23:19:30.273Z,3.98
2023-04-21T23:21:58.262Z,3.95
2023-04-21T23:24:26.312Z,3.92
2023-04-21T23:26:54.226Z,3.88
2023-04-21T23:29:22.133Z,3.80
2023-04-21T23:31:50.182Z,3.77
2023-04-21T23:34:18.181Z,3.77
2023-04-21T23:36:46.100Z,3.71
2023-04-21T23:39:14.124Z,3.65
2023-04-21T23:41:42.526Z,3.64
2023-04-21T23:44:11.283Z,3.61
2023-04-21T23:46:39.443Z,3.55
2023-04-21T23:49:08.984Z,3.47
2023-04-21T23:51:37.224Z,3.40
2023-04-21T23:54:05.351Z,3.38
2023-04-21T23:56:33.418Z,3.32
2023-04-21T23:59:01.711Z,3.24
